Time;durP1;ratioP1;P1;durP2;ratioP2;P2;SDS_P1;SDS_P2;PMS_P1;PMS_P2;Temp;Humidity;BMP_temperature;BMP_pressure;BME280_temperature;BME280_humidity;BME280_pressure;Samples;Min_cycle;Max_cycle;Signal;HPM_P1;HPM_P2
2022/07/19 05:00:23;;;;;;;4.83;3.80;;;21.40;97.20;;;;;;1700870;29;20614;-79
2022/07/19 05:01:14;;;;;;;3.83;3.40;;;21.40;97.20;;;;;;1700741;29;20230;-78
2022/07/19 05:02:06;;;;;;;5.73;3.70;;;21.40;97.20;;;;;;1700767;29;20294;-78
2022/07/19 05:02:57;;;;;;;4.70;3.85;;;21.50;97.20;;;;;;1700714;29;20577;-78
2022/07/19 05:03:49;;;;;;;4.97;3.93;;;21.50;97.20;;;;;;1700914;29;20293;-78
2022/07/19 05:04:39;;;;;;;4.22;3.92;;;21.50;97.20;;;;;;1700814;29;20207;-78
2022/07/19 05:05:31;;;;;;;5.80;3.80;;;21.50;97.20;;;;;;1700935;29;20237;-78
2022/07/19 05:06:24;;;;;;;6.30;3.97;;;21.50;97.20;;;;;;1700874;29;20203;-77
2022/07/19 05:07:16;;;;;;;5.22;3.60;;;21.50;97.20;;;;;;1700480;29;20549;-79
2022/07/19 05:08:07;;;;;;;6.28;3.60;;;21.50;97.20;;;;;;1700698;29;20479;-78
2022/07/19 05:08:58;;;;;;;6.70;3.80;;;21.60;97.20;;;;;;1700747;29;20299;-77
2022/07/19 05:09:49;;;;;;;4.30;3.60;;;21.60;97.20;;;;;;1700746;29;20584;-79
2022/07/19 05:10:41;;;;;;;4.30;3.33;;;21.60;97.20;;;;;;1700776;29;20589;-78
2022/07/19 05:11:32;;;;;;;6.22;3.72;;;21.60;97.20;;;;;;1700845;29;20218;-79
2022/07/19 05:12:23;;;;;;;3.57;3.27;;;21.60;97.20;;;;;;1704604;28;20285;-78
2022/07/19 05:13:14;;;;;;;4.00;3.38;;;21.60;97.20;;;;;;1707341;28;20206;-77
2022/07/19 05:14:06;;;;;;;5.07;3.70;;;21.70;97.20;;;;;;1707390;28;20206;-79
2022/07/19 05:14:58;;;;;;;3.72;3.08;;;21.70;97.20;;;;;;1707325;28;20217;-77
2022/07/19 05:15:51;;;;;;;3.90;3.40;;;21.70;97.20;;;;;;1707102;28;20230;-78
2022/07/19 05:16:42;;;;;;;4.00;3.58;;;21.70;97.20;;;;;;1706983;28;20223;-78
2022/07/19 05:17:34;;;;;;;5.20;3.70;;;21.70;97.20;;;;;;1707336;28;20282;-78
2022/07/19 05:18:25;;;;;;;3.85;3.55;;;21.70;97.20;;;;;;1707270;28;20210;-77
2022/07/19 05:19:17;;;;;;;6.20;3.70;;;21.70;97.20;;;;;;1707345;28;20245;-78
2022/07/19 05:20:10;;;;;;;5.53;3.40;;;21.80;97.20;;;;;;1707312;28;20242;-78
2022/07/19 05:21:02;;;;;;;6.05;3.63;;;21.80;97.20;;;;;;1707144;28;20214;-77
2022/07/19 05:21:53;;;;;;;4.72;3.97;;;21.80;97.20;;;;;;1707379;28;20696;-77
2022/07/19 05:22:45;;;;;;;4.10;3.70;;;21.80;97.20;;;;;;1707341;28;20614;-78
2022/07/19 05:23:36;;;;;;;4.97;4.18;;;21.90;97.20;;;;;;1707500;28;20202;-78
2022/07/19 05:24:27;;;;;;;4.30;4.00;;;21.90;97.20;;;;;;1707755;28;20253;-78
2022/07/19 05:25:18;;;;;;;7.10;3.70;;;21.90;97.20;;;;;;1713868;28;20210;-77
2022/07/19 05:26:10;;;;;;;5.67;4.00;;;21.90;97.20;;;;;;1713821;28;20304;-77
2022/07/19 05:27:01;;;;;;;4.80;3.90;;;22.00;97.20;;;;;;1713662;28;20202;-78
2022/07/19 05:27:54;;;;;;;5.40;4.40;;;22.00;97.20;;;;;;1713877;28;20240;-78
2022/07/19 05:28:45;;;;;;;3.95;3.30;;;22.00;97.20;;;;;;1713539;28;20220;-78
2022/07/19 05:29:37;;;;;;;6.20;3.80;;;22.00;97.20;;;;;;1713940;28;20233;-77
2022/07/19 05:30:28;;;;;;;4.55;3.80;;;22.00;97.20;;;;;;1713647;28;20214;-81
2022/07/19 05:31:21;;;;;;;5.87;3.30;;;22.00;97.20;;;;;;1713903;28;20197;-78
2022/07/19 05:32:12;;;;;;;5.38;4.03;;;22.10;97.20;;;;;;1713911;28;20210;-78
2022/07/19 05:33:03;;;;;;;3.93;3.60;;;22.10;97.20;;;;;;1713927;28;20284;-78
2022/07/19 05:33:54;;;;;;;5.95;3.85;;;22.10;97.20;;;;;;1713840;28;20213;-78
2022/07/19 05:34:46;;;;;;;5.30;4.00;;;22.10;97.20;;;;;;1713906;28;20293;-77
2022/07/19 05:35:38;;;;;;;3.80;3.50;;;22.10;97.20;;;;;;1714631;28;20206;-77
2022/07/19 05:36:29;;;;;;;6.80;3.83;;;22.20;97.20;;;;;;1715110;28;20201;-78
2022/07/19 05:37:20;;;;;;;4.63;3.30;;;22.20;97.20;;;;;;1714934;28;20588;-78
2022/07/19 05:38:12;;;;;;;3.33;3.03;;;22.20;97.20;;;;;;1715213;28;20233;-77
2022/07/19 05:39:03;;;;;;;4.95;3.85;;;22.20;97.20;;;;;;1711926;28;20345;-78
2022/07/19 05:39:55;;;;;;;3.90;3.50;;;22.20;97.20;;;;;;1712542;28;20674;-78
2022/07/19 05:40:47;;;;;;;6.07;4.05;;;22.30;97.20;;;;;;1708621;28;20795;-79
2022/07/19 05:41:39;;;;;;;5.60;4.35;;;22.30;97.20;;;;;;1708538;28;20614;-79
2022/07/19 05:42:30;;;;;;;4.25;3.85;;;22.30;97.20;;;;;;1708645;28;20245;-79
2022/07/19 05:43:22;;;;;;;3.47;3.17;;;22.30;97.20;;;;;;1708551;28;20234;-77
2022/07/19 05:44:12;;;;;;;5.28;3.60;;;22.40;97.20;;;;;;1708570;28;20213;-78
2022/07/19 05:45:05;;;;;;;3.63;3.33;;;22.40;97.20;;;;;;1708599;28;20234;-77
2022/07/19 05:45:56;;;;;;;4.03;3.60;;;22.40;97.20;;;;;;1708446;28;20705;-77
2022/07/19 05:46:49;;;;;;;3.77;3.47;;;22.40;97.20;;;;;;1708346;28;20613;-77
2022/07/19 05:47:39;;;;;;;4.72;3.90;;;22.40;97.20;;;;;;1708490;28;20549;-76
2022/07/19 05:48:32;;;;;;;4.03;3.50;;;22.50;97.20;;;;;;1708567;28;20306;-77
2022/07/19 05:49:23;;;;;;;4.35;3.45;;;22.50;97.20;;;;;;1708572;28;20198;-76
2022/07/19 05:50:15;;;;;;;4.13;3.63;;;22.50;97.20;;;;;;1708576;28;20196;-76
2022/07/19 05:51:06;;;;;;;4.60;3.80;;;22.50;97.20;;;;;;1708515;28;20202;-76
2022/07/19 05:51:57;;;;;;;7.03;4.00;;;22.50;97.20;;;;;;1708430;28;20202;-77
2022/07/19 05:52:48;;;;;;;6.07;3.88;;;22.60;97.20;;;;;;1708601;28;20725;-76
2022/07/19 05:53:40;;;;;;;5.30;3.70;;;22.60;97.20;;;;;;1708441;28;20297;-76
2022/07/19 05:54:31;;;;;;;4.30;3.90;;;22.60;97.20;;;;;;1708515;28;20213;-77
2022/07/19 05:55:22;;;;;;;4.23;3.90;;;22.60;97.20;;;;;;1708518;28;20236;-75
2022/07/19 05:56:13;;;;;;;4.60;4.10;;;22.60;97.20;;;;;;1713825;28;20214;-76
2022/07/19 05:57:05;;;;;;;5.47;3.33;;;22.70;97.20;;;;;;1714498;28;20220;-76
2022/07/19 05:57:56;;;;;;;4.45;3.60;;;22.70;97.20;;;;;;1715051;28;20209;-76
2022/07/19 05:58:47;;;;;;;4.87;3.90;;;22.70;97.20;;;;;;1715174;28;20208;-77
2022/07/19 05:59:38;;;;;;;4.53;4.10;;;22.70;97.20;;;;;;1715128;28;20213;-76
2022/07/19 06:00:30;;;;;;;13.20;4.40;;;22.80;97.20;;;;;;1714824;28;20237;-77
2022/07/19 06:01:22;;;;;;;4.70;4.15;;;22.80;97.20;;;;;;1715054;28;20689;-78
2022/07/19 06:02:16;;;;;;;5.95;4.63;;;22.80;97.20;;;;;;1715047;28;20232;-78
2022/07/19 06:03:07;;;;;;;5.30;4.53;;;22.80;97.20;;;;;;1715326;28;20292;-77
2022/07/19 06:04:00;;;;;;;7.20;4.60;;;22.90;97.20;;;;;;1715830;28;20256;-77
2022/07/19 06:04:51;;;;;;;6.72;4.70;;;22.90;97.20;;;;;;1713910;28;20449;-77
2022/07/19 06:05:43;;;;;;;7.57;4.27;;;22.90;97.20;;;;;;1708972;28;20234;-78
2022/07/19 06:06:34;;;;;;;4.97;4.47;;;22.90;97.20;;;;;;1708814;28;20202;-78
2022/07/19 06:07:26;;;;;;;5.30;4.20;;;22.90;97.20;;;;;;1708704;28;20221;-76
2022/07/19 06:08:17;;;;;;;6.82;3.75;;;23.00;97.20;;;;;;1708627;28;20202;-75
2022/07/19 06:09:11;;;;;;;5.13;4.60;;;23.00;97.20;;;;;;1708483;28;20202;-78
2022/07/19 06:10:03;;;;;;;10.48;3.90;;;23.00;97.20;;;;;;1708500;28;20203;-78
2022/07/19 06:10:54;;;;;;;4.60;3.85;;;23.10;97.20;;;;;;1708657;28;20211;-78
2022/07/19 06:11:45;;;;;;;7.47;4.20;;;23.10;97.20;;;;;;1709558;28;20578;-80
2022/07/19 06:12:37;;;;;;;7.70;5.07;;;23.10;97.20;;;;;;1711140;28;20645;-79
2022/07/19 06:13:28;;;;;;;7.05;3.90;;;23.10;97.20;;;;;;1716146;28;20209;-78
2022/07/19 06:14:20;;;;;;;5.00;4.20;;;23.20;97.20;;;;;;1716116;28;20261;-78
2022/07/19 06:15:11;;;;;;;6.47;4.00;;;23.20;97.20;;;;;;1715265;28;20445;-76
2022/07/19 06:16:03;;;;;;;9.90;4.10;;;23.20;97.20;;;;;;1714989;28;20662;-76
2022/07/19 06:16:55;;;;;;;5.35;4.30;;;23.20;97.20;;;;;;1714722;28;20226;-78
2022/07/19 06:17:47;;;;;;;6.60;4.20;;;23.30;97.20;;;;;;1715099;28;20205;-78
2022/07/19 06:18:40;;;;;;;7.18;4.35;;;23.30;97.20;;;;;;1715086;28;20650;-77
2022/07/19 06:19:30;;;;;;;6.97;3.88;;;23.30;97.20;;;;;;1715490;28;20213;-76
2022/07/19 06:20:22;;;;;;;7.17;4.30;;;23.30;97.20;;;;;;1715022;28;20709;-76
2022/07/19 06:21:17;;;;;;;5.18;4.13;;;23.40;97.20;;;;;;1714995;28;20202;-76
2022/07/19 06:22:09;;;;;;;4.95;4.45;;;23.40;97.20;;;;;;1715067;28;20206;-76
2022/07/19 06:23:00;;;;;;;7.53;4.38;;;23.40;97.20;;;;;;1715853;28;20208;-80
2022/07/19 06:23:51;;;;;;;6.03;4.50;;;23.40;97.20;;;;;;1714976;28;20672;-77
2022/07/19 06:24:42;;;;;;;10.77;4.90;;;23.40;97.20;;;;;;1714976;28;20213;-76
2022/07/19 06:25:34;;;;;;;6.50;4.37;;;23.50;97.20;;;;;;1714990;28;20229;-77
2022/07/19 06:26:26;;;;;;;8.07;4.75;;;23.50;97.20;;;;;;1714933;28;20205;-76
2022/07/19 06:27:18;;;;;;;6.77;4.60;;;23.50;97.20;;;;;;1714597;28;20193;-77
2022/07/19 06:28:08;;;;;;;10.75;5.20;;;23.50;97.20;;;;;;1714798;28;20824;-78
2022/07/19 06:29:00;;;;;;;8.47;4.60;;;23.50;97.20;;;;;;1714619;28;20228;-77
2022/07/19 06:29:51;;;;;;;10.43;4.65;;;23.50;97.20;;;;;;1713558;28;20202;-75
2022/07/19 06:30:43;;;;;;;4.50;4.10;;;23.50;97.20;;;;;;1714902;28;20201;-77
2022/07/19 06:31:34;;;;;;;4.55;4.10;;;23.50;97.20;;;;;;1714599;28;20209;-77
2022/07/19 06:32:26;;;;;;;5.13;4.63;;;23.60;97.20;;;;;;1714905;28;20201;-77
2022/07/19 06:33:19;;;;;;;7.00;4.68;;;23.60;97.20;;;;;;1714856;28;20198;-76
2022/07/19 06:34:10;;;;;;;9.30;5.70;;;23.60;97.20;;;;;;1714852;28;20198;-77
2022/07/19 06:35:02;;;;;;;5.80;5.00;;;23.60;97.20;;;;;;1714914;28;20202;-77
2022/07/19 06:35:53;;;;;;;5.25;4.70;;;23.60;97.20;;;;;;1714814;28;20616;-77
2022/07/19 06:36:44;;;;;;;12.70;5.07;;;23.60;97.20;;;;;;1714530;28;20265;-77
2022/07/19 06:37:36;;;;;;;9.15;5.57;;;23.70;97.20;;;;;;1714834;28;20445;-77
2022/07/19 06:38:28;;;;;;;8.45;5.60;;;23.70;97.20;;;;;;1714884;28;20253;-76
2022/07/19 06:39:18;;;;;;;11.38;5.10;;;23.70;97.20;;;;;;1714749;28;20213;-77
2022/07/19 06:40:11;;;;;;;6.97;5.40;;;23.70;97.20;;;;;;1714961;28;20198;-76
2022/07/19 06:41:02;;;;;;;6.03;4.40;;;23.70;97.20;;;;;;1714886;28;20202;-76
2022/07/19 06:41:53;;;;;;;9.13;4.28;;;23.80;97.20;;;;;;1714873;28;20721;-76
2022/07/19 06:42:44;;;;;;;8.53;4.87;;;23.80;97.20;;;;;;1714827;28;20229;-78
2022/07/19 06:43:36;;;;;;;12.17;5.27;;;23.80;97.20;;;;;;1714775;28;20524;-76
2022/07/19 06:44:28;;;;;;;6.07;4.88;;;23.80;97.20;;;;;;1714876;28;20202;-77
2022/07/19 06:45:18;;;;;;;8.57;4.90;;;23.80;97.20;;;;;;1714807;28;20208;-77
2022/07/19 06:46:11;;;;;;;13.03;5.57;;;23.90;97.20;;;;;;1709977;28;20776;-77
2022/07/19 06:47:01;;;;;;;9.07;4.45;;;23.90;97.20;;;;;;1707149;28;20226;-77
2022/07/19 06:47:53;;;;;;;6.23;4.37;;;23.90;97.20;;;;;;1708004;28;20293;-78
2022/07/19 06:48:45;;;;;;;10.13;4.90;;;23.90;97.20;;;;;;1708136;28;20221;-76
2022/07/19 06:49:37;;;;;;;9.68;5.05;;;23.90;97.20;;;;;;1708188;28;20450;-77
2022/07/19 06:50:28;;;;;;;6.50;4.30;;;24.00;97.20;;;;;;1708199;28;20210;-76
2022/07/19 06:51:19;;;;;;;7.80;4.30;;;24.00;97.20;;;;;;1708135;28;20285;-77
2022/07/19 06:52:10;;;;;;;7.30;4.82;;;24.00;97.20;;;;;;1708259;28;20202;-78
2022/07/19 06:53:02;;;;;;;13.00;4.70;;;24.00;97.20;;;;;;1708181;28;20201;-77
2022/07/19 06:53:53;;;;;;;8.82;4.10;;;24.10;97.20;;;;;;1708125;28;20210;-78
2022/07/19 06:54:45;;;;;;;8.73;4.50;;;24.10;97.20;;;;;;1708135;28;20738;-77
2022/07/19 06:55:36;;;;;;;10.60;3.90;;;24.10;97.20;;;;;;1708142;28;20206;-76
2022/07/19 06:56:27;;;;;;;9.13;4.87;;;24.10;97.20;;;;;;1708054;28;20482;-77
2022/07/19 06:57:18;;;;;;;13.68;4.90;;;24.20;97.20;;;;;;1707812;28;20482;-77
2022/07/19 06:58:10;;;;;;;7.60;3.90;;;24.20;97.20;;;;;;1703944;28;20734;-78
2022/07/19 06:59:01;;;;;;;8.52;4.22;;;24.30;97.20;;;;;;1701490;29;20574;-77
2022/07/19 06:59:52;;;;;;;9.03;4.30;;;24.30;97.20;;;;;;1701580;29;20645;-77
2022/07/19 07:00:43;;;;;;;8.40;4.32;;;24.30;97.20;;;;;;1704013;29;20681;-77
2022/07/19 07:01:35;;;;;;;7.80;3.97;;;24.40;97.20;;;;;;1701513;29;20623;-76
2022/07/19 07:02:26;;;;;;;11.25;4.28;;;24.40;97.20;;;;;;1706580;28;20453;-76
2022/07/19 07:03:18;;;;;;;7.27;4.17;;;24.50;97.20;;;;;;1707980;28;20230;-78
2022/07/19 07:04:10;;;;;;;8.10;4.22;;;24.50;97.20;;;;;;1708017;28;20301;-77
2022/07/19 07:05:03;;;;;;;6.65;3.85;;;24.60;97.20;;;;;;1708008;28;20225;-77
2022/07/19 07:05:54;;;;;;;6.23;3.90;;;24.60;97.20;;;;;;1707994;29;20233;-77
2022/07/19 07:06:46;;;;;;;9.87;4.63;;;24.60;97.20;;;;;;1707902;28;20977;-78
2022/07/19 07:07:37;;;;;;;7.30;4.10;;;24.70;97.20;;;;;;1708053;28;20215;-78
2022/07/19 07:08:29;;;;;;;9.02;4.63;;;24.70;97.20;;;;;;1708016;28;20629;-77
2022/07/19 07:09:20;;;;;;;10.38;4.70;;;24.80;97.20;;;;;;1708014;28;20210;-76
2022/07/19 07:10:12;;;;;;;11.43;4.20;;;24.80;97.20;;;;;;1708121;28;20222;-78
2022/07/19 07:11:03;;;;;;;9.60;3.97;;;24.90;97.20;;;;;;1708012;28;20241;-78
2022/07/19 07:11:55;;;;;;;17.77;4.63;;;24.90;97.20;;;;;;1708069;28;20214;-77
2022/07/19 07:12:45;;;;;;;5.75;3.60;;;25.00;97.20;;;;;;1708044;28;20457;-76
2022/07/19 07:13:38;;;;;;;10.43;4.37;;;25.00;97.20;;;;;;1708122;28;20278;-77
2022/07/19 07:14:29;;;;;;;11.88;3.88;;;25.00;97.20;;;;;;1708014;28;20293;-77
2022/07/19 07:15:20;;;;;;;17.57;3.57;;;25.00;97.20;;;;;;1707989;28;20203;-78
2022/07/19 07:16:11;;;;;;;14.40;4.57;;;25.10;97.20;;;;;;1707826;28;20229;-77
2022/07/19 07:17:03;;;;;;;10.20;4.93;;;25.10;97.20;;;;;;1707620;28;20202;-77
2022/07/19 07:17:55;;;;;;;17.80;4.30;;;25.10;97.20;;;;;;1707998;28;20211;-77
2022/07/19 07:18:46;;;;;;;15.27;4.30;;;25.20;97.20;;;;;;1708742;28;20202;-77
2022/07/19 07:19:39;;;;;;;13.87;4.37;;;25.20;97.20;;;;;;1707944;28;20462;-78
2022/07/19 07:20:30;;;;;;;11.43;4.30;;;25.30;97.20;;;;;;1708729;28;20477;-78
2022/07/19 07:21:22;;;;;;;11.60;4.77;;;25.30;97.20;;;;;;1707961;28;20213;-78
2022/07/19 07:22:13;;;;;;;10.20;4.50;;;25.40;97.20;;;;;;1707971;28;20457;-77
2022/07/19 07:23:05;;;;;;;14.40;4.37;;;25.40;97.20;;;;;;1707912;28;20277;-77
2022/07/19 07:23:56;;;;;;;10.73;3.92;;;25.40;97.20;;;;;;1707972;28;20934;-78
2022/07/19 07:24:47;;;;;;;16.13;4.80;;;25.40;97.20;;;;;;1707936;28;20580;-77
2022/07/19 07:25:38;;;;;;;9.10;3.83;;;25.50;97.20;;;;;;1707902;28;20202;-78
2022/07/19 07:26:30;;;;;;;12.93;4.23;;;25.50;97.20;;;;;;1707873;28;20314;-77
2022/07/19 07:27:21;;;;;;;14.03;3.90;;;25.50;97.20;;;;;;1707542;28;20446;-77
2022/07/19 07:28:13;;;;;;;8.45;3.95;;;25.60;97.20;;;;;;1707951;28;20828;-77
2022/07/19 07:29:04;;;;;;;15.05;3.55;;;25.60;97.20;;;;;;1707966;28;20221;-78
2022/07/19 07:29:55;;;;;;;11.33;3.50;;;25.60;97.20;;;;;;1708144;28;20226;-76
2022/07/19 07:30:46;;;;;;;7.13;3.15;;;25.60;97.20;;;;;;1708081;28;20230;-77
2022/07/19 07:31:38;;;;;;;8.80;3.53;;;25.70;97.20;;;;;;1707964;28;20203;-77
2022/07/19 07:32:29;;;;;;;7.95;4.03;;;25.70;97.20;;;;;;1707975;28;20584;-77
2022/07/19 07:33:21;;;;;;;9.63;3.70;;;25.80;97.20;;;;;;1707952;28;20194;-78
2022/07/19 07:34:12;;;;;;;9.20;3.20;;;25.80;97.20;;;;;;1707999;28;20454;-79
2022/07/19 07:35:06;;;;;;;7.10;3.37;;;25.80;97.20;;;;;;1707894;28;20205;-76
2022/07/19 07:35:57;;;;;;;10.67;3.30;;;25.90;97.20;;;;;;1709753;28;20479;-77
2022/07/19 07:36:49;;;;;;;6.23;3.40;;;25.90;97.20;;;;;;1714178;28;20451;-76
2022/07/19 07:37:40;;;;;;;7.97;3.30;;;25.90;97.20;;;;;;1714317;28;20229;-77
2022/07/19 07:38:31;;;;;;;6.63;3.70;;;25.90;97.20;;;;;;1714710;28;20208;-76
2022/07/19 07:39:23;;;;;;;10.83;3.20;;;26.00;97.20;;;;;;1714506;28;20448;-76
2022/07/19 07:40:14;;;;;;;15.93;4.00;;;26.00;97.20;;;;;;1714411;28;20503;-76
2022/07/19 07:41:05;;;;;;;15.95;3.60;;;26.10;97.20;;;;;;1714504;28;20445;-76
2022/07/19 07:41:57;;;;;;;8.40;3.87;;;26.10;97.20;;;;;;1714494;28;20241;-76
2022/07/19 07:42:48;;;;;;;10.68;3.90;;;26.10;97.20;;;;;;1714426;28;20460;-78
2022/07/19 07:43:40;;;;;;;4.33;3.20;;;26.20;97.20;;;;;;1714457;28;20228;-76
2022/07/19 07:44:31;;;;;;;7.97;3.50;;;26.20;97.20;;;;;;1714486;28;20205;-76
2022/07/19 07:45:23;;;;;;;6.03;3.30;;;26.20;97.20;;;;;;1714463;28;20880;-76
2022/07/19 07:46:13;;;;;;;7.80;3.40;;;26.30;97.20;;;;;;1714310;28;20819;-76
2022/07/19 07:47:08;;;;;;;5.60;3.17;;;26.30;97.20;;;;;;1714181;28;20458;-77
2022/07/19 07:48:00;;;;;;;4.10;2.80;;;26.30;97.20;;;;;;1714328;28;20206;-77
2022/07/19 07:48:50;;;;;;;4.47;2.90;;;26.40;97.20;;;;;;1714414;28;20499;-77
2022/07/19 07:49:42;;;;;;;5.80;2.80;;;26.40;97.20;;;;;;1714363;28;20524;-77
2022/07/19 07:50:34;;;;;;;3.40;3.00;;;26.40;97.20;;;;;;1714431;28;20201;-77
2022/07/19 07:51:26;;;;;;;8.73;3.97;;;26.40;97.20;;;;;;1714390;28;20450;-77
2022/07/19 07:52:17;;;;;;;12.47;3.57;;;26.40;97.20;;;;;;1714821;28;20457;-77
2022/07/19 07:53:09;;;;;;;8.20;3.77;;;26.50;97.20;;;;;;1708080;28;20533;-76
2022/07/19 07:54:00;;;;;;;6.07;3.20;;;26.50;97.20;;;;;;1707727;28;20454;-77
2022/07/19 07:54:52;;;;;;;7.60;2.90;;;26.50;97.20;;;;;;1707523;28;20529;-81
2022/07/19 07:55:44;;;;;;;5.90;2.70;;;26.50;97.20;;;;;;1707626;28;20450;-77
2022/07/19 07:56:35;;;;;;;4.40;2.80;;;26.60;97.20;;;;;;1707485;28;20458;-77
2022/07/19 07:57:27;;;;;;;7.10;3.27;;;26.60;97.20;;;;;;1707760;28;20978;-77
2022/07/19 07:58:17;;;;;;;6.93;3.00;;;26.60;97.20;;;;;;1707690;28;20202;-76
2022/07/19 07:59:09;;;;;;;4.80;3.10;;;26.70;97.20;;;;;;1707743;28;20534;-76
2022/07/19 08:00:00;;;;;;;6.70;2.97;;;26.70;97.20;;;;;;1707692;28;20209;-77
2022/07/19 08:00:52;;;;;;;6.73;3.17;;;26.70;97.20;;;;;;1702406;28;20481;-78
2022/07/19 08:01:44;;;;;;;6.50;3.20;;;26.70;97.20;;;;;;1704559;29;20207;-78
2022/07/19 08:02:39;;;;;;;3.13;2.53;;;26.70;97.20;;;;;;1705096;28;20450;-77
2022/07/19 08:03:30;;;;;;;3.90;2.57;;;26.80;97.20;;;;;;1705615;29;20458;-77
2022/07/19 08:04:22;;;;;;;2.33;2.20;;;26.80;97.20;;;;;;1707477;28;20443;-78
2022/07/19 08:05:14;;;;;;;2.60;2.40;;;26.80;97.20;;;;;;1707435;29;20200;-78
2022/07/19 08:06:06;;;;;;;4.00;2.20;;;26.90;97.20;;;;;;1707451;29;20466;-77
2022/07/19 08:06:58;;;;;;;4.63;2.57;;;26.90;97.20;;;;;;1707187;28;20874;-78
2022/07/19 08:07:50;;;;;;;3.23;2.70;;;26.90;97.20;;;;;;1707389;29;20453;-77
2022/07/19 08:08:41;;;;;;;2.50;2.30;;;26.90;97.20;;;;;;1707569;28;20446;-76
2022/07/19 08:09:33;;;;;;;5.10;2.40;;;26.90;97.20;;;;;;1708942;28;20452;-78
2022/07/19 08:10:26;;;;;;;2.90;2.50;;;26.90;97.20;;;;;;1707478;28;20930;-77
2022/07/19 08:11:18;;;;;;;4.53;2.50;;;26.90;97.20;;;;;;1707516;29;20514;-79
2022/07/19 08:12:10;;;;;;;3.60;2.47;;;26.90;97.20;;;;;;1707540;28;20976;-79
2022/07/19 08:13:01;;;;;;;2.73;2.47;;;27.00;97.20;;;;;;1707537;28;20457;-77
2022/07/19 08:13:53;;;;;;;2.77;2.57;;;27.00;96.90;;;;;;1707466;29;20868;-77
2022/07/19 08:14:43;;;;;;;5.90;2.50;;;27.00;96.80;;;;;;1707416;29;20469;-78
2022/07/19 08:15:35;;;;;;;3.20;2.60;;;27.00;97.00;;;;;;1707535;28;20447;-76
2022/07/19 08:16:26;;;;;;;2.87;2.30;;;27.10;97.00;;;;;;1705149;29;20198;-78
2022/07/19 08:17:18;;;;;;;2.77;2.40;;;27.10;97.00;;;;;;1707194;28;20434;-79
2022/07/19 08:18:09;;;;;;;2.83;2.50;;;27.10;97.10;;;;;;1707270;29;20485;-78
2022/07/19 08:19:01;;;;;;;3.80;2.60;;;27.10;96.80;;;;;;1707486;29;20542;-78
2022/07/19 08:19:51;;;;;;;5.93;2.43;;;27.20;96.90;;;;;;1707497;28;20202;-78
2022/07/19 08:20:43;;;;;;;3.30;2.37;;;27.20;96.70;;;;;;1707477;28;20493;-77
2022/07/19 08:21:36;;;;;;;2.40;2.20;;;27.20;96.60;;;;;;1707390;29;20209;-77
2022/07/19 08:22:28;;;;;;;4.17;2.30;;;27.30;96.60;;;;;;1705016;29;20442;-77
2022/07/19 08:23:20;;;;;;;2.90;2.60;;;27.30;96.50;;;;;;1707486;28;20474;-77
2022/07/19 08:24:10;;;;;;;3.03;2.73;;;27.30;96.60;;;;;;1707384;29;20442;-77
2022/07/19 08:25:02;;;;;;;2.87;2.57;;;27.30;96.90;;;;;;1707643;29;20538;-78
2022/07/19 08:25:53;;;;;;;3.77;3.00;;;27.40;96.70;;;;;;1708196;28;20377;-77
2022/07/19 08:26:45;;;;;;;2.57;2.20;;;27.40;96.60;;;;;;1706017;28;20461;-77
2022/07/19 08:27:36;;;;;;;3.83;2.60;;;27.40;96.50;;;;;;1703481;29;20455;-77
2022/07/19 08:28:27;;;;;;;2.90;2.63;;;27.40;96.80;;;;;;1704827;28;20990;-77
2022/07/19 08:29:18;;;;;;;5.30;2.40;;;27.40;97.20;;;;;;1704370;28;20199;-77
2022/07/19 08:30:10;;;;;;;4.40;2.53;;;27.40;97.20;;;;;;1703379;29;20431;-78
2022/07/19 08:31:01;;;;;;;5.63;2.70;;;27.50;97.20;;;;;;1704307;29;20203;-78
2022/07/19 08:31:53;;;;;;;3.43;2.60;;;27.50;97.20;;;;;;1704821;28;20466;-77
2022/07/19 08:32:44;;;;;;;4.80;2.63;;;27.50;97.20;;;;;;1703525;28;20457;-78
2022/07/19 08:33:38;;;;;;;4.77;2.40;;;27.60;97.20;;;;;;1703515;29;20466;-77
2022/07/19 08:34:29;;;;;;;4.10;2.53;;;27.60;97.20;;;;;;1705207;29;20605;-78
2022/07/19 08:35:21;;;;;;;5.83;2.90;;;27.60;97.20;;;;;;1707348;28;20848;-78
2022/07/19 08:36:11;;;;;;;3.73;2.90;;;27.60;97.10;;;;;;1707322;28;20234;-78
2022/07/19 08:37:05;;;;;;;4.33;2.70;;;27.60;97.20;;;;;;1707182;29;20441;-77
2022/07/19 08:37:55;;;;;;;4.40;2.50;;;27.70;97.20;;;;;;1707322;28;20202;-78
2022/07/19 08:38:47;;;;;;;7.30;2.60;;;27.60;97.20;;;;;;1707389;29;20442;-78
2022/07/19 08:39:38;;;;;;;4.80;2.60;;;27.60;97.20;;;;;;1707505;29;20202;-78
2022/07/19 08:40:34;;;;;;;3.20;2.50;;;27.70;97.20;;;;;;1707351;28;20481;-78
2022/07/19 08:41:25;;;;;;;2.90;2.60;;;27.70;97.20;;;;;;1707647;28;20214;-78
2022/07/19 08:42:19;;;;;;;4.10;2.67;;;27.70;97.20;;;;;;1708273;28;20450;-78
2022/07/19 08:43:10;;;;;;;3.97;2.80;;;27.80;97.10;;;;;;1707505;28;20952;-78
2022/07/19 08:44:04;;;;;;;5.70;2.87;;;27.80;96.80;;;;;;1707405;28;20465;-78
2022/07/19 08:44:58;;;;;;;3.73;2.57;;;27.80;96.90;;;;;;1707413;28;20815;-78
2022/07/19 08:45:50;;;;;;;2.83;2.53;;;27.80;97.10;;;;;;1705122;28;20470;-78
2022/07/19 08:46:41;;;;;;;3.20;2.23;;;27.90;96.30;;;;;;1706922;28;20449;-78
2022/07/19 08:47:33;;;;;;;2.87;2.67;;;27.90;96.60;;;;;;1707259;29;20453;-79
2022/07/19 08:48:24;;;;;;;3.40;2.57;;;28.00;96.70;;;;;;1707344;29;20434;-78
2022/07/19 08:49:16;;;;;;;2.30;2.10;;;28.00;96.80;;;;;;1707395;28;21505;-77
2022/07/19 08:50:11;;;;;;;2.80;2.23;;;28.00;96.70;;;;;;1705144;29;20458;-77
2022/07/19 08:51:04;;;;;;;3.23;2.63;;;28.10;96.90;;;;;;1708581;28;20880;-76
2022/07/19 08:51:56;;;;;;;2.47;2.20;;;28.10;96.40;;;;;;1707490;28;20509;-78
2022/07/19 08:52:49;;;;;;;4.70;2.30;;;28.20;96.10;;;;;;1704967;29;20474;-77
2022/07/19 08:53:40;;;;;;;5.70;2.60;;;28.20;96.00;;;;;;1707471;28;20453;-77
2022/07/19 08:54:33;;;;;;;3.30;2.50;;;28.30;96.10;;;;;;1707341;29;20533;-77
2022/07/19 08:55:26;;;;;;;5.43;2.50;;;28.30;96.10;;;;;;1707340;29;21070;-79
2022/07/19 08:58:39;;;;;;;3.10;2.80;;;28.50;95.80;;;;;;1706215;29;20414;-77
2022/07/19 08:59:30;;;;;;;4.20;2.60;;;28.50;95.90;;;;;;1708032;28;20984;-78
2022/07/19 09:00:22;;;;;;;9.00;2.80;;;28.50;95.90;;;;;;1707783;28;20438;-77
2022/07/19 09:01:13;;;;;;;2.73;2.33;;;28.50;95.70;;;;;;1707311;28;20965;-77
2022/07/19 09:02:05;;;;;;;3.00;2.57;;;28.50;95.10;;;;;;1707316;28;20866;-79
2022/07/19 09:02:57;;;;;;;2.87;2.53;;;28.50;94.80;;;;;;1707294;29;20202;-78
2022/07/19 09:04:06;;;;;;;2.77;2.57;;;28.60;95.00;;;;;;1707609;28;20795;-78
2022/07/19 09:05:01;;;;;;;2.63;2.43;;;28.60;95.20;;;;;;1706383;29;20453;-78
2022/07/19 09:06:04;;;;;;;5.03;2.60;;;28.60;95.20;;;;;;1707379;28;20469;-79
2022/07/19 09:06:57;;;;;;;5.77;2.20;;;28.70;95.10;;;;;;1705803;29;20435;-79
2022/07/19 09:08:08;;;;;;;2.73;2.50;;;28.70;94.60;;;;;;1705048;29;20442;-78
2022/07/19 09:09:04;;;;;;;2.73;2.50;;;28.70;94.30;;;;;;1706862;29;20450;-78
2022/07/19 09:10:16;;;;;;;2.33;2.13;;;28.70;94.60;;;;;;1707100;28;20439;-78
2022/07/19 09:11:15;;;;;;;2.80;2.60;;;28.80;93.40;;;;;;1704572;29;20525;-79
2022/07/19 09:12:07;;;;;;;3.60;2.97;;;28.80;93.70;;;;;;1704695;28;20464;-77
2022/07/19 09:13:05;;;;;;;4.77;2.80;;;28.80;94.00;;;;;;1702100;28;20514;-78
2022/07/19 09:14:05;;;;;;;5.57;2.87;;;28.80;93.80;;;;;;1705259;29;20446;-78
2022/07/19 09:14:58;;;;;;;2.70;2.33;;;28.90;93.70;;;;;;1705479;29;20793;-78
2022/07/19 09:15:51;;;;;;;2.93;2.70;;;28.90;93.70;;;;;;1706869;28;20863;-80
2022/07/19 09:17:00;;;;;;;3.50;3.03;;;28.90;93.60;;;;;;1706065;29;20430;-77
2022/07/19 09:18:05;;;;;;;3.07;2.80;;;29.00;93.20;;;;;;1704872;29;20796;-78
2022/07/19 09:19:05;;;;;;;2.60;2.40;;;29.00;92.70;;;;;;1705649;29;20497;-77
2022/07/19 09:19:57;;;;;;;3.27;2.97;;;29.00;92.60;;;;;;1705345;29;20459;-78
2022/07/19 09:20:49;;;;;;;4.23;3.00;;;29.10;92.70;;;;;;1703239;28;20451;-78
2022/07/19 09:21:52;;;;;;;3.83;2.63;;;29.10;93.10;;;;;;1704126;29;20447;-77
2022/07/19 09:22:55;;;;;;;3.83;2.70;;;29.10;93.50;;;;;;1703554;28;20844;-78
2022/07/19 09:23:50;;;;;;;2.97;2.67;;;29.20;93.20;;;;;;1704756;29;20454;-78
2022/07/19 09:24:43;;;;;;;3.80;2.80;;;29.20;93.10;;;;;;1707210;28;20446;-78
2022/07/19 09:25:36;;;;;;;2.80;2.60;;;29.30;93.10;;;;;;1707042;28;20454;-78
2022/07/19 09:26:27;;;;;;;3.77;2.80;;;29.30;93.10;;;;;;1704686;29;20438;-78
2022/07/19 09:27:22;;;;;;;3.13;2.83;;;29.30;93.30;;;;;;1706957;28;20445;-78
2022/07/19 09:28:13;;;;;;;4.83;3.27;;;29.40;93.00;;;;;;1707050;29;20446;-78
2022/07/19 09:29:18;;;;;;;4.80;2.93;;;29.40;93.10;;;;;;1707148;29;20550;-79
2022/07/19 09:30:11;;;;;;;2.90;2.43;;;29.40;92.60;;;;;;1705284;29;20285;-78
2022/07/19 09:31:04;;;;;;;3.07;2.70;;;29.50;92.30;;;;;;1707180;28;20442;-80
2022/07/19 09:32:06;;;;;;;5.90;2.73;;;29.50;91.50;;;;;;1707126;29;20540;-78
2022/07/19 09:33:06;;;;;;;3.67;2.67;;;29.50;91.40;;;;;;1707870;28;20439;-78
2022/07/19 09:33:57;;;;;;;6.23;2.93;;;29.50;91.20;;;;;;1706251;29;20514;-78